Time;durP1;ratioP1;P1;durP2;ratioP2;P2;SDS_P1;SDS_P2;PMS_P1;PMS_P2;Temp;Humidity;BMP_temperature;BMP_pressure;BME280_temperature;BME280_humidity;BME280_pressure;Samples;Min_cycle;Max_cycle;Signal;HPM_P1;HPM_P2
2022/02/15 00:01:04;;;;;;;57.05;37.70;;;;;;;;;;784557;75;26277;-83
2022/02/15 00:02:06;;;;;;;60.58;39.03;;;;;;;;;;784575;75;26231;-83
2022/02/15 00:03:09;;;;;;;57.98;39.65;;;;;;;;;;784767;75;26282;-83
2022/02/15 00:04:12;;;;;;;60.08;38.83;;;;;;;;;;784805;75;26243;-82
2022/02/15 00:05:14;;;;;;;59.27;39.65;;;;;;;;;;784688;75;26278;-82
2022/02/15 00:06:17;;;;;;;54.35;37.23;;;;;;;;;;784469;75;26239;-83
2022/02/15 00:07:20;;;;;;;61.20;39.18;;;;;;;;;;784288;75;26372;-82
2022/02/15 00:08:24;;;;;;;56.75;38.80;;;;;;;;;;784382;75;26318;-82
2022/02/15 00:09:29;;;;;;;56.95;37.73;;;;;;;;;;784405;75;26392;-81
2022/02/15 00:10:31;;;;;;;55.85;37.10;;;;;;;;;;784343;75;26712;-85
2022/02/15 00:11:34;;;;;;;56.63;37.70;;;;;;;;;;784094;75;26323;-83
2022/02/15 00:12:37;;;;;;;57.93;38.38;;;;;;;;;;784476;75;26379;-82
2022/02/15 00:13:40;;;;;;;57.00;37.93;;;;;;;;;;784428;75;26529;-81
2022/02/15 00:14:42;;;;;;;57.58;39.23;;;;;;;;;;784281;75;26267;-81
2022/02/15 00:15:46;;;;;;;60.10;39.60;;;;;;;;;;784337;75;26761;-79
2022/02/15 00:16:50;;;;;;;57.78;39.45;;;;;;;;;;784106;75;26794;-81
2022/02/15 00:17:53;;;;;;;55.03;38.10;;;;;;;;;;784202;75;26704;-83
2022/02/15 00:18:56;;;;;;;55.33;38.45;;;;;;;;;;784359;75;26305;-81
2022/02/15 00:19:58;;;;;;;55.65;38.65;;;;;;;;;;784213;75;26243;-81
2022/02/15 00:21:01;;;;;;;57.70;38.30;;;;;;;;;;784299;75;26224;-81
2022/02/15 00:22:04;;;;;;;57.10;38.35;;;;;;;;;;784008;75;26372;-80
2022/02/15 00:23:07;;;;;;;62.73;41.77;;;;;;;;;;784110;75;26310;-81
2022/02/15 00:24:09;;;;;;;62.98;41.35;;;;;;;;;;784130;75;26720;-80
2022/02/15 00:25:13;;;;;;;60.33;38.58;;;;;;;;;;784216;75;26753;-82
2022/02/15 00:26:16;;;;;;;57.65;39.42;;;;;;;;;;784133;75;26352;-83
2022/02/15 00:27:19;;;;;;;61.18;40.10;;;;;;;;;;784208;75;26792;-82
2022/02/15 00:28:21;;;;;;;58.42;39.63;;;;;;;;;;784142;75;26292;-82
2022/02/15 00:29:25;;;;;;;59.20;37.48;;;;;;;;;;784225;75;26371;-85
2022/02/15 00:30:28;;;;;;;60.23;39.42;;;;;;;;;;784238;75;26850;-79
2022/02/15 00:31:31;;;;;;;59.88;39.27;;;;;;;;;;784412;75;26384;-84
2022/02/15 00:32:33;;;;;;;59.27;40.50;;;;;;;;;;784355;75;26333;-84
2022/02/15 00:33:36;;;;;;;60.28;39.53;;;;;;;;;;784200;75;26364;-83
2022/02/15 00:34:39;;;;;;;54.45;39.48;;;;;;;;;;784288;75;26770;-81
2022/02/15 00:35:42;;;;;;;56.37;35.50;;;;;;;;;;784251;75;26310;-81
2022/02/15 00:36:44;;;;;;;49.00;34.65;;;;;;;;;;784372;75;26286;-80
2022/02/15 00:37:47;;;;;;;49.00;33.60;;;;;;;;;;784310;75;26469;-82
2022/02/15 00:38:50;;;;;;;52.83;32.75;;;;;;;;;;784104;75;26287;-83
2022/02/15 00:39:52;;;;;;;51.68;35.48;;;;;;;;;;784185;75;26244;-83
2022/02/15 00:40:55;;;;;;;51.95;34.73;;;;;;;;;;784151;75;26786;-84
2022/02/15 00:41:58;;;;;;;49.25;33.38;;;;;;;;;;784230;75;26303;-82
2022/02/15 00:43:01;;;;;;;45.60;33.25;;;;;;;;;;784147;75;26298;-82
2022/02/15 00:44:04;;;;;;;51.13;34.43;;;;;;;;;;783960;75;26372;-84
2022/02/15 00:45:07;;;;;;;49.35;31.93;;;;;;;;;;784039;75;26290;-81
2022/02/15 00:46:10;;;;;;;50.38;33.58;;;;;;;;;;784102;75;26327;-82
2022/02/15 00:47:13;;;;;;;47.27;32.90;;;;;;;;;;784182;75;26763;-82
2022/02/15 00:48:15;;;;;;;45.52;32.58;;;;;;;;;;784147;75;27228;-81
2022/02/15 00:49:18;;;;;;;44.83;30.95;;;;;;;;;;784136;75;26326;-82
2022/02/15 00:50:21;;;;;;;46.45;32.23;;;;;;;;;;784100;75;26704;-79
2022/02/15 00:51:23;;;;;;;43.87;30.75;;;;;;;;;;784203;75;26348;-82
2022/02/15 00:52:27;;;;;;;47.10;31.90;;;;;;;;;;784269;75;26348;-84
2022/02/15 00:53:29;;;;;;;51.10;33.18;;;;;;;;;;784265;75;26837;-81
2022/02/15 00:54:32;;;;;;;49.00;32.33;;;;;;;;;;784073;75;26297;-83
2022/02/15 00:55:35;;;;;;;53.05;31.95;;;;;;;;;;784002;75;26306;-81
2022/02/15 00:56:38;;;;;;;46.80;31.27;;;;;;;;;;783511;74;26239;-81
2022/02/15 00:57:42;;;;;;;43.25;31.23;;;;;;;;;;782951;76;26453;-80
2022/02/15 00:58:45;;;;;;;50.60;32.20;;;;;;;;;;783043;76;26395;-80
2022/02/15 00:59:47;;;;;;;48.20;32.17;;;;;;;;;;783100;76;26335;-79
2022/02/15 01:00:50;;;;;;;45.90;31.27;;;;;;;;;;782791;76;26308;-81
2022/02/15 01:01:53;;;;;;;46.85;32.48;;;;;;;;;;783103;76;26723;-84
2022/02/15 01:02:56;;;;;;;47.33;32.33;;;;;;;;;;783018;76;26287;-80
2022/02/15 01:03:59;;;;;;;47.33;32.60;;;;;;;;;;783021;76;26352;-80
2022/02/15 01:05:01;;;;;;;43.85;30.72;;;;;;;;;;783125;76;24320;-81
2022/02/15 01:06:04;;;;;;;45.78;30.70;;;;;;;;;;782902;76;26223;-80
2022/02/15 01:07:07;;;;;;;49.00;30.75;;;;;;;;;;782836;76;26290;-83
2022/02/15 01:08:12;;;;;;;47.78;31.62;;;;;;;;;;782960;76;26352;-81
2022/02/15 01:09:14;;;;;;;43.17;30.40;;;;;;;;;;783053;76;26520;-81
2022/02/15 01:10:20;;;;;;;47.50;32.13;;;;;;;;;;783121;76;26317;-83
2022/02/15 01:11:21;;;;;;;47.80;31.05;;;;;;;;;;782915;76;26302;-79
2022/02/15 01:12:24;;;;;;;48.23;32.60;;;;;;;;;;782949;76;26247;-81
2022/02/15 01:13:27;;;;;;;44.70;30.75;;;;;;;;;;782975;76;26759;-80
2022/02/15 01:14:30;;;;;;;41.53;30.72;;;;;;;;;;782996;76;26782;-82
2022/02/15 01:15:34;;;;;;;53.23;31.90;;;;;;;;;;783093;76;26380;-81
2022/02/15 01:16:36;;;;;;;47.50;32.03;;;;;;;;;;783007;76;26287;-82
2022/02/15 01:17:40;;;;;;;46.58;31.75;;;;;;;;;;782867;76;26368;-81
2022/02/15 01:18:43;;;;;;;47.67;31.57;;;;;;;;;;782964;76;26735;-82
2022/02/15 01:19:45;;;;;;;43.10;30.27;;;;;;;;;;782962;76;24363;-84
2022/02/15 01:20:48;;;;;;;44.15;31.12;;;;;;;;;;782971;76;26290;-81
2022/02/15 01:21:53;;;;;;;47.10;31.15;;;;;;;;;;783022;76;26274;-82
2022/02/15 01:22:56;;;;;;;45.50;31.07;;;;;;;;;;782982;76;26298;-82
2022/02/15 01:23:59;;;;;;;47.83;31.48;;;;;;;;;;782968;76;26748;-83
2022/02/15 01:25:03;;;;;;;45.58;30.68;;;;;;;;;;783012;76;24719;-83
2022/02/15 01:26:06;;;;;;;54.85;32.10;;;;;;;;;;782938;76;26290;-82
2022/02/15 01:27:08;;;;;;;46.23;31.40;;;;;;;;;;783013;76;25271;-80
2022/02/15 01:28:11;;;;;;;45.10;32.65;;;;;;;;;;782883;76;26352;-81
2022/02/15 01:29:14;;;;;;;46.00;31.45;;;;;;;;;;782926;76;26376;-82
2022/02/15 01:30:16;;;;;;;48.35;31.73;;;;;;;;;;783056;76;26782;-81
2022/02/15 01:31:19;;;;;;;50.98;33.53;;;;;;;;;;782977;75;26274;-82
2022/02/15 01:32:22;;;;;;;44.70;31.55;;;;;;;;;;783024;76;26278;-82
2022/02/15 01:33:24;;;;;;;46.63;32.45;;;;;;;;;;783037;76;26307;-80
2022/02/15 01:34:27;;;;;;;46.65;31.87;;;;;;;;;;783083;76;26404;-82
2022/02/15 01:35:30;;;;;;;47.67;31.80;;;;;;;;;;783092;76;26518;-79
2022/02/15 01:36:32;;;;;;;48.23;31.57;;;;;;;;;;783138;76;26291;-81
2022/02/15 01:37:35;;;;;;;42.70;30.92;;;;;;;;;;783122;76;26376;-82
2022/02/15 01:38:38;;;;;;;43.95;30.60;;;;;;;;;;783261;76;26349;-82
2022/02/15 01:39:40;;;;;;;45.43;31.10;;;;;;;;;;783149;76;26239;-82
2022/02/15 01:40:43;;;;;;;47.25;31.07;;;;;;;;;;783196;76;26299;-83
2022/02/15 01:41:46;;;;;;;42.27;30.85;;;;;;;;;;783118;76;26236;-82
2022/02/15 01:42:49;;;;;;;48.98;31.97;;;;;;;;;;783221;76;26485;-82
2022/02/15 01:43:52;;;;;;;45.08;30.72;;;;;;;;;;783192;76;26280;-81
2022/02/15 01:44:54;;;;;;;49.00;32.38;;;;;;;;;;782875;76;26411;-81
2022/02/15 01:45:57;;;;;;;44.40;30.02;;;;;;;;;;782983;76;26318;-82
2022/02/15 01:47:00;;;;;;;48.75;31.70;;;;;;;;;;782969;76;26336;-81
2022/02/15 01:48:03;;;;;;;44.88;31.02;;;;;;;;;;783073;76;26322;-82
2022/02/15 01:49:06;;;;;;;43.48;31.07;;;;;;;;;;783001;76;26313;-80
2022/02/15 01:50:08;;;;;;;44.75;30.15;;;;;;;;;;782782;76;26240;-82
2022/02/15 01:51:11;;;;;;;46.50;30.50;;;;;;;;;;783064;76;24921;-80
2022/02/15 01:52:14;;;;;;;45.83;31.62;;;;;;;;;;783066;76;26283;-82
2022/02/15 01:53:16;;;;;;;45.12;30.92;;;;;;;;;;782970;76;26779;-81
2022/02/15 01:54:20;;;;;;;43.75;31.50;;;;;;;;;;783039;76;26300;-82
2022/02/15 01:55:23;;;;;;;44.73;30.75;;;;;;;;;;782934;76;26775;-82
2022/02/15 01:56:26;;;;;;;46.05;29.98;;;;;;;;;;782737;76;26286;-82
2022/02/15 01:57:30;;;;;;;45.80;31.05;;;;;;;;;;783275;74;24422;-82
2022/02/15 01:58:33;;;;;;;45.50;31.95;;;;;;;;;;784300;75;26380;-81
2022/02/15 01:59:36;;;;;;;44.63;30.80;;;;;;;;;;784269;75;26801;-81
2022/02/15 02:00:40;;;;;;;45.52;30.32;;;;;;;;;;784194;75;26432;-82
2022/02/15 02:01:42;;;;;;;45.40;30.20;;;;;;;;;;783936;75;26650;-84
2022/02/15 02:02:45;;;;;;;46.30;31.97;;;;;;;;;;783921;75;24711;-82
2022/02/15 02:03:48;;;;;;;45.63;30.12;;;;;;;;;;784097;75;26403;-82
2022/02/15 02:06:11;;;;;;;48.28;30.75;;;;;;;;;;784153;75;26278;-82
2022/02/15 02:07:14;;;;;;;49.00;31.20;;;;;;;;;;784077;75;24648;-80
2022/02/15 02:08:20;;;;;;;47.55;30.90;;;;;;;;;;783917;75;26943;-82
2022/02/15 02:09:23;;;;;;;45.48;31.07;;;;;;;;;;784258;74;26701;-80
2022/02/15 02:10:26;;;;;;;47.20;31.97;;;;;;;;;;783995;75;26783;-80
2022/02/15 02:11:29;;;;;;;45.17;31.12;;;;;;;;;;783947;75;26328;-79
2022/02/15 02:12:31;;;;;;;47.45;31.97;;;;;;;;;;784037;75;26318;-83
2022/02/15 02:13:34;;;;;;;43.75;30.20;;;;;;;;;;784077;75;26321;-81
2022/02/15 02:14:37;;;;;;;46.73;33.58;;;;;;;;;;784065;75;26302;-81
2022/02/15 02:15:39;;;;;;;52.30;33.02;;;;;;;;;;783940;75;26824;-81
2022/02/15 02:16:42;;;;;;;48.17;31.95;;;;;;;;;;784176;75;26831;-81
2022/02/15 02:17:45;;;;;;;48.38;32.35;;;;;;;;;;784293;75;26231;-80
2022/02/15 02:18:48;;;;;;;47.60;32.65;;;;;;;;;;784135;75;26756;-83
2022/02/15 02:19:52;;;;;;;48.50;33.28;;;;;;;;;;784142;75;26728;-81
2022/02/15 02:20:54;;;;;;;51.40;33.18;;;;;;;;;;783996;75;26302;-81
2022/02/15 02:22:01;;;;;;;51.02;33.63;;;;;;;;;;784114;75;26368;-82
2022/02/15 02:23:02;;;;;;;50.78;33.63;;;;;;;;;;784002;75;26278;-80
2022/02/15 02:24:05;;;;;;;51.85;33.33;;;;;;;;;;784204;75;26352;-81
2022/02/15 02:25:08;;;;;;;54.00;34.25;;;;;;;;;;783997;75;26235;-82
2022/02/15 02:26:11;;;;;;;47.90;32.90;;;;;;;;;;784209;75;26353;-80
2022/02/15 02:27:16;;;;;;;58.15;35.75;;;;;;;;;;784081;75;26239;-80
2022/02/15 02:28:20;;;;;;;50.95;34.15;;;;;;;;;;784230;75;24648;-81
2022/02/15 02:29:22;;;;;;;58.02;34.48;;;;;;;;;;784160;75;26293;-83
2022/02/15 02:30:25;;;;;;;58.83;36.20;;;;;;;;;;784173;75;26286;-80
2022/02/15 02:31:28;;;;;;;51.48;35.00;;;;;;;;;;784082;75;26425;-82
2022/02/15 02:32:32;;;;;;;54.55;34.98;;;;;;;;;;784050;75;26822;-81
2022/02/15 02:33:34;;;;;;;60.35;36.08;;;;;;;;;;784258;75;26478;-82
2022/02/15 02:34:37;;;;;;;59.13;36.60;;;;;;;;;;784060;75;26383;-82
2022/02/15 02:35:40;;;;;;;54.77;37.10;;;;;;;;;;784314;75;24880;-82
2022/02/15 02:36:44;;;;;;;52.98;33.88;;;;;;;;;;784034;75;26337;-83
2022/02/15 02:37:47;;;;;;;59.35;37.78;;;;;;;;;;784266;74;26766;-79
2022/02/15 02:38:49;;;;;;;53.65;35.55;;;;;;;;;;784247;75;26312;-81
2022/02/15 02:39:53;;;;;;;56.80;36.20;;;;;;;;;;784295;75;26267;-80
2022/02/15 02:40:56;;;;;;;57.83;36.90;;;;;;;;;;784209;75;26282;-83
2022/02/15 02:41:59;;;;;;;55.92;35.45;;;;;;;;;;784039;75;26338;-81
2022/02/15 02:43:01;;;;;;;58.20;37.53;;;;;;;;;;784129;75;26790;-82
2022/02/15 02:44:04;;;;;;;55.00;35.17;;;;;;;;;;784230;75;26294;-80
2022/02/15 02:45:09;;;;;;;56.88;35.50;;;;;;;;;;784206;75;26715;-80
2022/02/15 02:46:12;;;;;;;54.20;36.42;;;;;;;;;;784369;75;26363;-83
2022/02/15 02:47:14;;;;;;;51.83;34.95;;;;;;;;;;784266;75;26763;-81
2022/02/15 02:48:17;;;;;;;57.78;36.03;;;;;;;;;;784240;75;26278;-83
2022/02/15 02:49:20;;;;;;;51.68;34.45;;;;;;;;;;784210;75;26683;-80
2022/02/15 02:50:28;;;;;;;58.55;35.48;;;;;;;;;;784359;75;26732;-82
2022/02/15 02:51:30;;;;;;;58.10;37.08;;;;;;;;;;784369;75;26728;-81
2022/02/15 02:52:33;;;;;;;57.60;35.73;;;;;;;;;;784336;75;26306;-82
2022/02/15 02:53:37;;;;;;;54.83;38.25;;;;;;;;;;784075;75;26325;-81
2022/02/15 02:54:43;;;;;;;54.67;37.13;;;;;;;;;;784319;75;26235;-81
2022/02/15 02:55:46;;;;;;;56.02;36.70;;;;;;;;;;784181;75;26298;-80
2022/02/15 02:56:48;;;;;;;62.05;38.20;;;;;;;;;;784357;75;26497;-82
2022/02/15 02:57:53;;;;;;;57.40;36.35;;;;;;;;;;784352;75;26243;-81
2022/02/15 02:58:56;;;;;;;55.48;35.90;;;;;;;;;;784159;74;26392;-83
2022/02/15 02:59:58;;;;;;;57.40;36.50;;;;;;;;;;784025;75;26372;-82
2022/02/15 03:01:01;;;;;;;53.08;35.85;;;;;;;;;;783984;75;26845;-79
2022/02/15 03:02:04;;;;;;;53.48;36.10;;;;;;;;;;784106;75;26736;-81
2022/02/15 03:03:09;;;;;;;57.10;37.15;;;;;;;;;;784216;75;26395;-80
2022/02/15 03:04:14;;;;;;;57.27;37.42;;;;;;;;;;784289;75;26367;-81
2022/02/15 03:05:17;;;;;;;55.92;35.48;;;;;;;;;;784046;75;26278;-84
2022/02/15 03:06:21;;;;;;;55.58;33.78;;;;;;;;;;784198;75;26677;-81
2022/02/15 03:07:24;;;;;;;55.35;36.83;;;;;;;;;;784085;75;26278;-81
2022/02/15 03:08:26;;;;;;;55.17;34.73;;;;;;;;;;784083;75;26331;-82
2022/02/15 03:09:29;;;;;;;52.62;34.58;;;;;;;;;;784235;75;26318;-82
2022/02/15 03:10:32;;;;;;;53.58;34.65;;;;;;;;;;784153;75;26274;-82
2022/02/15 03:11:35;;;;;;;53.83;33.55;;;;;;;;;;784193;75;26353;-83
2022/02/15 03:12:38;;;;;;;53.55;33.25;;;;;;;;;;784034;75;26728;-83
2022/02/15 03:13:40;;;;;;;48.90;32.90;;;;;;;;;;784082;75;26306;-81
2022/02/15 03:14:43;;;;;;;54.88;33.10;;;;;;;;;;784295;75;26298;-83
2022/02/15 03:15:46;;;;;;;51.08;32.03;;;;;;;;;;784214;75;26246;-80
2022/02/15 03:16:49;;;;;;;45.25;29.87;;;;;;;;;;784165;75;26278;-80
2022/02/15 03:17:53;;;;;;;48.90;30.55;;;;;;;;;;784163;75;26756;-81
2022/02/15 03:18:58;;;;;;;41.92;29.90;;;;;;;;;;784274;74;26724;-81
2022/02/15 03:20:01;;;;;;;48.40;30.80;;;;;;;;;;784247;75;26322;-80
2022/02/15 03:21:04;;;;;;;45.95;30.20;;;;;;;;;;784261;75;26293;-80
2022/02/15 03:22:07;;;;;;;46.80;30.95;;;;;;;;;;784201;75;26414;-82
2022/02/15 03:23:10;;;;;;;46.50;30.15;;;;;;;;;;784079;75;26236;-82
2022/02/15 03:24:13;;;;;;;49.03;30.25;;;;;;;;;;784172;75;26766;-81
2022/02/15 03:25:15;;;;;;;44.95;30.30;;;;;;;;;;784350;75;26282;-81
2022/02/15 03:26:18;;;;;;;48.13;31.12;;;;;;;;;;784276;75;26250;-80
2022/02/15 03:27:22;;;;;;;47.53;30.00;;;;;;;;;;784053;75;26247;-82
2022/02/15 03:28:25;;;;;;;45.30;30.88;;;;;;;;;;784879;75;26258;-80
2022/02/15 03:29:28;;;;;;;46.65;30.62;;;;;;;;;;785893;75;26215;-83
2022/02/15 03:30:31;;;;;;;45.05;29.63;;;;;;;;;;786013;75;26308;-84
2022/02/15 03:31:33;;;;;;;43.55;29.98;;;;;;;;;;786072;75;26348;-88
2022/02/15 03:32:37;;;;;;;48.52;30.97;;;;;;;;;;785910;75;26283;-84
2022/02/15 03:33:39;;;;;;;46.75;29.65;;;;;;;;;;785755;75;26324;-82
2022/02/15 03:34:42;;;;;;;46.05;30.05;;;;;;;;;;785728;75;26320;-84
2022/02/15 03:35:45;;;;;;;49.50;30.62;;;;;;;;;;785960;75;26302;-82
2022/02/15 03:36:47;;;;;;;46.40;29.42;;;;;;;;;;785898;75;26550;-85
2022/02/15 03:37:50;;;;;;;46.10;31.70;;;;;;;;;;785733;75;26332;-82
2022/02/15 03:38:53;;;;;;;49.53;31.12;;;;;;;;;;786153;75;26307;-81
2022/02/15 03:39:55;;;;;;;47.05;31.00;;;;;;;;;;785253;75;26302;-80
2022/02/15 03:43:39;;;;;;;51.80;31.25;;;;;;;;;;785031;75;26302;-82
2022/02/15 03:44:42;;;;;;;44.23;29.80;;;;;;;;;;785073;75;26743;-81
2022/02/15 03:45:46;;;;;;;50.88;33.28;;;;;;;;;;785278;75;26286;-81
2022/02/15 03:46:50;;;;;;;54.00;32.35;;;;;;;;;;785112;75;26321;-82
2022/02/15 03:47:53;;;;;;;54.70;33.38;;;;;;;;;;785121;75;26266;-82
2022/02/15 03:48:55;;;;;;;50.78;31.85;;;;;;;;;;784825;75;26388;-82
2022/02/15 03:49:58;;;;;;;52.70;32.53;;;;;;;;;;784157;75;26299;-81
2022/02/15 03:51:01;;;;;;;51.20;32.70;;;;;;;;;;784241;75;26750;-82
2022/02/15 03:52:03;;;;;;;48.80;32.28;;;;;;;;;;784056;75;26298;-82
2022/02/15 03:53:06;;;;;;;50.85;31.87;;;;;;;;;;784138;75;26314;-83
2022/02/15 03:54:09;;;;;;;49.05;30.85;;;;;;;;;;784176;75;24669;-82
2022/02/15 03:55:11;;;;;;;52.20;33.48;;;;;;;;;;784081;75;26708;-78
2022/02/15 03:56:14;;;;;;;51.18;31.80;;;;;;;;;;784113;75;26302;-82
2022/02/15 03:57:17;;;;;;;51.02;32.75;;;;;;;;;;783972;75;26282;-82
2022/02/15 03:58:20;;;;;;;53.05;34.10;;;;;;;;;;783952;75;26290;-83
2022/02/15 03:59:23;;;;;;;53.63;33.85;;;;;;;;;;783984;74;26291;-80
2022/02/15 04:00:26;;;;;;;47.93;31.37;;;;;;;;;;784181;75;26301;-82
2022/02/15 04:01:29;;;;;;;47.98;31.57;;;;;;;;;;784268;75;26340;-83
2022/02/15 04:02:32;;;;;;;52.98;31.95;;;;;;;;;;784231;75;26239;-80
2022/02/15 04:03:36;;;;;;;52.38;32.28;;;;;;;;;;784032;75;26290;-83
2022/02/15 04:04:39;;;;;;;54.38;32.38;;;;;;;;;;783749;75;26795;-82
2022/02/15 04:05:42;;;;;;;50.85;32.58;;;;;;;;;;783994;75;26751;-80
2022/02/15 04:06:44;;;;;;;50.10;32.40;;;;;;;;;;784082;75;26345;-83
2022/02/15 04:07:47;;;;;;;53.23;32.08;;;;;;;;;;784168;75;26314;-84
2022/02/15 04:08:50;;;;;;;57.27;33.63;;;;;;;;;;784057;75;26352;-82
2022/02/15 04:09:52;;;;;;;53.02;33.42;;;;;;;;;;784243;75;26322;-82
2022/02/15 04:10:55;;;;;;;54.10;33.33;;;;;;;;;;784118;75;26282;-82
2022/02/15 04:11:58;;;;;;;55.58;32.35;;;;;;;;;;784158;75;26379;-83
2022/02/15 04:13:02;;;;;;;53.45;33.55;;;;;;;;;;784441;75;26302;-80
2022/02/15 04:14:05;;;;;;;53.95;34.00;;;;;;;;;;784339;75;26302;-80
2022/02/15 04:15:08;;;;;;;56.53;32.35;;;;;;;;;;784012;75;26358;-82
2022/02/15 04:16:10;;;;;;;51.85;33.45;;;;;;;;;;784225;75;26355;-82
2022/02/15 04:17:13;;;;;;;52.48;32.75;;;;;;;;;;784291;75;26310;-80
2022/02/15 04:18:16;;;;;;;52.93;31.93;;;;;;;;;;784481;75;26728;-80
2022/02/15 04:19:21;;;;;;;53.35;32.78;;;;;;;;;;784449;75;26275;-82
2022/02/15 04:20:25;;;;;;;53.45;32.90;;;;;;;;;;784211;75;26540;-84
2022/02/15 04:21:28;;;;;;;56.42;33.45;;;;;;;;;;784010;75;26310;-82
2022/02/15 04:22:30;;;;;;;51.88;31.35;;;;;;;;;;784153;75;24597;-82
2022/02/15 04:23:33;;;;;;;55.80;32.35;;;;;;;;;;784073;75;26770;-81
2022/02/15 04:24:36;;;;;;;54.65;33.18;;;;;;;;;;784225;75;26747;-83
2022/02/15 04:25:38;;;;;;;50.88;32.63;;;;;;;;;;784229;75;26302;-83
2022/02/15 04:26:41;;;;;;;52.62;32.78;;;;;;;;;;784171;75;26318;-84
2022/02/15 04:27:44;;;;;;;52.15;32.85;;;;;;;;;;784404;75;26711;-80
2022/02/15 04:28:47;;;;;;;50.08;31.40;;;;;;;;;;783950;75;26334;-84
2022/02/15 04:29:49;;;;;;;52.15;32.08;;;;;;;;;;784175;75;26388;-82
2022/02/15 04:30:52;;;;;;;53.08;31.85;;;;;;;;;;784095;75;26746;-84
2022/02/15 04:31:55;;;;;;;50.05;29.55;;;;;;;;;;784149;75;26314;-84
2022/02/15 04:32:58;;;;;;;52.70;33.15;;;;;;;;;;784257;75;26820;-81
2022/02/15 04:34:01;;;;;;;54.83;31.10;;;;;;;;;;784261;75;26320;-81
2022/02/15 04:35:03;;;;;;;52.15;31.65;;;;;;;;;;784307;75;26376;-82
2022/02/15 04:36:07;;;;;;;55.60;31.70;;;;;;;;;;784201;75;26299;-80
2022/02/15 04:37:10;;;;;;;52.33;31.70;;;;;;;;;;784141;75;26290;-81
2022/02/15 04:38:13;;;;;;;55.25;30.48;;;;;;;;;;784288;75;26408;-83
2022/02/15 04:39:15;;;;;;;50.80;31.73;;;;;;;;;;784270;75;26297;-82
2022/02/15 04:40:18;;;;;;;54.70;32.25;;;;;;;;;;784226;75;24739;-85
2022/02/15 04:41:22;;;;;;;55.40;33.18;;;;;;;;;;770711;77;26801;-83
2022/02/15 04:42:25;;;;;;;53.83;31.70;;;;;;;;;;783922;75;26283;-85
2022/02/15 04:43:28;;;;;;;54.58;32.58;;;;;;;;;;769954;77;26321;-81
2022/02/15 04:44:31;;;;;;;46.95;30.17;;;;;;;;;;770359;75;26375;-82
2022/02/15 04:45:33;;;;;;;58.55;33.60;;;;;;;;;;783851;75;26763;-83
2022/02/15 04:46:36;;;;;;;56.15;33.80;;;;;;;;;;783941;75;26278;-82
2022/02/15 04:47:40;;;;;;;53.50;32.75;;;;;;;;;;784213;75;26313;-81
2022/02/15 04:48:42;;;;;;;55.40;32.60;;;;;;;;;;783715;75;26665;-83
2022/02/15 04:49:45;;;;;;;58.83;33.10;;;;;;;;;;783877;75;26270;-83
2022/02/15 04:50:48;;;;;;;51.98;32.88;;;;;;;;;;784030;75;26313;-82
2022/02/15 04:51:51;;;;;;;46.45;30.05;;;;;;;;;;784134;75;26338;-84
2022/02/15 04:52:57;;;;;;;52.93;30.70;;;;;;;;;;784740;75;26309;-83
2022/02/15 04:54:01;;;;;;;49.98;31.27;;;;;;;;;;784111;75;26275;-83
2022/02/15 04:55:04;;;;;;;50.33;31.00;;;;;;;;;;783754;75;24857;-80
2022/02/15 04:56:07;;;;;;;53.55;30.95;;;;;;;;;;784084;75;26325;-82
2022/02/15 04:57:09;;;;;;;48.17;30.77;;;;;;;;;;783957;75;26298;-82
2022/02/15 04:58:12;;;;;;;48.68;30.30;;;;;;;;;;784131;75;27185;-83
2022/02/15 04:59:15;;;;;;;55.60;32.88;;;;;;;;;;783984;75;24319;-82
2022/02/15 05:00:18;;;;;;;52.25;32.70;;;;;;;;;;783995;74;24712;-81
2022/02/15 05:01:21;;;;;;;56.80;33.05;;;;;;;;;;784265;75;26286;-83
2022/02/15 05:02:26;;;;;;;57.25;33.58;;;;;;;;;;784283;74;26413;-80
2022/02/15 05:03:28;;;;;;;54.65;32.83;;;;;;;;;;784116;75;26251;-82
2022/02/15 05:04:49;;;;;;;54.45;31.25;;;;;;;;;;784212;75;26310;-83
2022/02/15 05:05:52;;;;;;;53.28;31.23;;;;;;;;;;784046;75;26255;-81
2022/02/15 05:06:54;;;;;;;55.17;31.85;;;;;;;;;;784205;75;26286;-82
2022/02/15 05:07:57;;;;;;;56.42;32.45;;;;;;;;;;784120;75;26348;-81
2022/02/15 05:09:00;;;;;;;54.00;32.05;;;;;;;;;;784213;75;26351;-84
2022/02/15 05:10:04;;;;;;;52.08;30.32;;;;;;;;;;784035;75;26298;-82
2022/02/15 05:11:09;;;;;;;52.10;31.40;;;;;;;;;;785455;74;26808;-83
2022/02/15 05:12:12;;;;;;;55.90;31.93;;;;;;;;;;784927;75;26313;-85
2022/02/15 05:13:15;;;;;;;54.73;31.82;;;;;;;;;;784034;75;26380;-78
2022/02/15 05:14:17;;;;;;;60.50;34.23;;;;;;;;;;784166;75;26399;-78
2022/02/15 05:15:20;;;;;;;59.38;33.15;;;;;;;;;;784071;75;24716;-78
2022/02/15 05:16:23;;;;;;;54.40;31.23;;;;;;;;;;784042;75;26391;-79
2022/02/15 05:17:27;;;;;;;58.50;33.40;;;;;;;;;;784777;75;26794;-78
2022/02/15 05:18:30;;;;;;;49.35;31.02;;;;;;;;;;784198;75;24654;-78
2022/02/15 05:19:33;;;;;;;56.55;31.40;;;;;;;;;;783838;75;26318;-79
2022/02/15 05:20:36;;;;;;;55.17;32.40;;;;;;;;;;783554;75;26319;-78
2022/02/15 05:21:39;;;;;;;50.90;30.35;;;;;;;;;;783803;75;26767;-76
2022/02/15 05:22:42;;;;;;;60.40;31.82;;;;;;;;;;783831;75;26317;-80
2022/02/15 05:23:45;;;;;;;60.38;32.78;;;;;;;;;;783862;75;26735;-79
2022/02/15 05:24:47;;;;;;;56.80;33.02;;;;;;;;;;783975;75;26760;-79
2022/02/15 05:25:51;;;;;;;60.98;34.03;;;;;;;;;;783866;75;26292;-78
2022/02/15 05:26:54;;;;;;;56.88;33.75;;;;;;;;;;783807;75;26435;-78
2022/02/15 05:27:58;;;;;;;60.45;33.15;;;;;;;;;;783821;75;26556;-77
2022/02/15 05:29:01;;;;;;;52.95;32.15;;;;;;;;;;783924;75;26298;-77
2022/02/15 05:30:04;;;;;;;56.53;32.20;;;;;;;;;;783814;75;26999;-79
2022/02/15 05:31:09;;;;;;;54.48;31.82;;;;;;;;;;783356;75;26348;-76
2022/02/15 05:32:11;;;;;;;54.93;32.35;;;;;;;;;;783684;75;26686;-78
2022/02/15 05:33:14;;;;;;;59.67;34.03;;;;;;;;;;783679;75;24672;-78
2022/02/15 05:34:17;;;;;;;55.05;31.25;;;;;;;;;;783642;75;26322;-78
2022/02/15 05:35:19;;;;;;;48.13;30.32;;;;;;;;;;783806;75;26352;-76
2022/02/15 05:36:22;;;;;;;54.35;32.45;;;;;;;;;;783894;75;26756;-79
2022/02/15 05:37:25;;;;;;;55.88;31.60;;;;;;;;;;783884;75;26352;-77
2022/02/15 05:38:27;;;;;;;54.90;33.08;;;;;;;;;;783556;75;26282;-78
2022/02/15 05:39:30;;;;;;;52.25;30.85;;;;;;;;;;783719;75;26371;-76
2022/02/15 05:40:32;;;;;;;50.63;30.85;;;;;;;;;;783857;75;26314;-78
2022/02/15 05:41:35;;;;;;;52.53;31.90;;;;;;;;;;783764;75;25164;-78
2022/02/15 05:42:38;;;;;;;56.42;31.23;;;;;;;;;;783935;75;26408;-78
2022/02/15 05:43:41;;;;;;;60.23;33.18;;;;;;;;;;783634;75;26340;-77
2022/02/15 05:44:44;;;;;;;55.03;31.68;;;;;;;;;;783662;75;26837;-77
2022/02/15 05:45:46;;;;;;;56.60;32.60;;;;;;;;;;783635;75;26337;-77
2022/02/15 05:46:49;;;;;;;56.50;31.23;;;;;;;;;;783507;75;26298;-77
2022/02/15 05:47:52;;;;;;;59.25;31.95;;;;;;;;;;783761;75;26291;-77
2022/02/15 05:48:54;;;;;;;52.48;31.35;;;;;;;;;;783810;75;26824;-77
2022/02/15 05:50:58;;;;;;;56.80;31.80;;;;;;;;;;783746;75;26388;-78
2022/02/15 05:51:12;;;;;;;61.25;33.25;;;;;;;;;;766523;75;26423;-78
2022/02/15 05:52:14;;;;;;;61.13;34.15;;;;;;;;;;783810;75;26314;-78
2022/02/15 05:53:18;;;;;;;57.90;33.55;;;;;;;;;;783842;75;26317;-76
2022/02/15 05:54:20;;;;;;;58.85;34.58;;;;;;;;;;783793;75;26326;-76
2022/02/15 05:55:23;;;;;;;61.77;34.75;;;;;;;;;;783639;75;26372;-79
2022/02/15 05:56:26;;;;;;;61.80;36.73;;;;;;;;;;783652;75;26314;-78
2022/02/15 05:57:28;;;;;;;69.25;38.35;;;;;;;;;;783705;75;26341;-77
2022/02/15 05:58:32;;;;;;;70.65;39.60;;;;;;;;;;783844;75;26293;-80
2022/02/15 05:59:35;;;;;;;72.20;39.55;;;;;;;;;;783808;75;26614;-78
2022/02/15 06:00:38;;;;;;;73.80;39.40;;;;;;;;;;783752;75;26286;-76
2022/02/15 06:01:40;;;;;;;70.75;38.60;;;;;;;;;;789373;74;26367;-77
2022/02/15 06:02:44;;;;;;;73.90;38.85;;;;;;;;;;794427;74;26285;-78
2022/02/15 06:05:07;;;;;;;72.78;39.20;;;;;;;;;;794500;74;26286;-78
2022/02/15 06:06:12;;;;;;;67.00;38.00;;;;;;;;;;794899;74;26371;-77
2022/02/15 06:07:15;;;;;;;66.90;37.93;;;;;;;;;;794609;74;26687;-77
2022/02/15 06:08:17;;;;;;;72.03;38.00;;;;;;;;;;794454;74;26285;-76
2022/02/15 06:09:20;;;;;;;71.12;38.13;;;;;;;;;;794437;74;26432;-79
2022/02/15 06:10:23;;;;;;;68.40;37.85;;;;;;;;;;794386;74;26313;-76
2022/02/15 06:11:27;;;;;;;71.35;39.83;;;;;;;;;;794170;74;26304;-78
2022/02/15 06:12:30;;;;;;;66.62;37.15;;;;;;;;;;794445;74;26282;-77
2022/02/15 06:13:32;;;;;;;70.15;37.80;;;;;;;;;;794359;74;26289;-76
2022/02/15 06:14:35;;;;;;;69.25;38.73;;;;;;;;;;794381;74;26398;-77
2022/02/15 06:15:38;;;;;;;69.37;37.90;;;;;;;;;;794417;74;26250;-77
2022/02/15 06:16:42;;;;;;;71.02;38.90;;;;;;;;;;794434;74;26375;-78
2022/02/15 06:17:44;;;;;;;70.67;39.90;;;;;;;;;;794465;74;26293;-77
2022/02/15 06:18:47;;;;;;;70.03;38.67;;;;;;;;;;794458;74;26245;-77